Time;durP1;ratioP1;P1;durP2;ratioP2;P2;SDS_P1;SDS_P2;PMS_P1;PMS_P2;Temp;Humidity;BMP_temperature;BMP_pressure;BME280_temperature;BME280_humidity;BME280_pressure;Samples;Min_cycle;Max_cycle;Signal;HPM_P1;HPM_P2
2022/02/03 00:01:24;;;;;;;;;4.00;4.00;;;;;11.80;75.40;101663.16;4835628;29;47205;-82
2022/02/03 00:03:56;;;;;;;;;4.00;4.00;;;;;11.80;75.42;101663.16;4851536;29;45671;-83
2022/02/03 00:06:34;;;;;;;;;4.00;4.00;;;;;11.79;75.44;101651.56;4833288;29;45414;-83
2022/02/03 00:25:09;;;;;;;;;8.00;5.00;;;;;11.75;75.25;101640.81;4854532;29;45444;-83
2022/02/03 00:30:14;;;;;;;;;4.00;4.00;;;;;11.71;75.52;101636.28;4854353;29;45749;-83
2022/02/03 00:49:38;;;;;;;;;3.00;1.67;;;;;11.51;76.09;101627.78;4853607;29;44724;-82
2022/02/03 00:52:06;;;;;;;;;8.00;5.00;;;;;11.48;75.69;101617.97;4854118;29;45447;-83
2022/02/03 00:54:32;;;;;;;;;7.00;7.00;;;;;11.44;75.94;101610.78;4853392;29;46472;-83
2022/02/03 00:57:09;;;;;;;;;8.67;7.33;;;;;11.46;75.88;101613.47;4836712;29;44865;-83
2022/02/03 01:00:01;;;;;;;;;4.00;4.00;;;;;11.38;76.16;101600.88;4836783;29;45514;-83
2022/02/03 01:02:29;;;;;;;;;5.00;4.33;;;;;11.43;76.20;101618.72;4852209;29;45417;-83
2022/02/03 01:04:58;;;;;;;;;10.67;10.33;;;;;11.40;75.96;101620.44;4836066;29;48053;-83
2022/02/03 01:07:24;;;;;;;;;4.67;4.00;;;;;11.35;76.05;101616.78;4835960;29;45494;-83
2022/02/03 01:10:05;;;;;;;;;3.33;3.33;;;;;11.33;76.18;101607.84;4853329;29;45405;-83
2022/02/03 01:12:58;;;;;;;;;5.33;3.00;;;;;11.35;76.26;101605.19;4854329;29;45411;-83
2022/02/03 01:45:58;;;;;;;;;7.00;7.00;;;;;11.11;76.49;101594.84;4851171;29;45813;-83
2022/02/03 01:53:20;;;;;;;;;7.00;5.00;;;;;11.13;76.28;101603.75;4833327;29;45513;-83
2022/02/03 01:55:47;;;;;;;;;6.33;6.33;;;;;11.02;76.46;101590.19;4828994;29;45519;-83
2022/02/03 01:58:20;;;;;;;;;4.33;3.33;;;;;11.04;76.72;101592.91;4830045;29;45052;-82
2022/02/03 02:00:56;;;;;;;;;8.00;5.67;;;;;11.06;76.94;101585.84;4830442;29;45420;-83
2022/02/03 02:03:37;;;;;;;;;7.00;3.33;;;;;11.00;76.66;101587.47;4834362;29;45670;-83
2022/02/03 02:06:57;;;;;;;;;7.00;7.00;;;;;11.08;76.31;101594.78;4833867;29;45486;-83
2022/02/03 02:09:55;;;;;;;;;4.00;4.00;;;;;11.05;76.49;101587.63;4777048;29;46743;-83
2022/02/03 02:12:45;;;;;;;;;5.00;4.00;;;;;11.07;76.67;101590.28;4763019;29;45432;-83
2022/02/03 02:40:28;;;;;;;;;3.33;3.33;;;;;11.06;76.88;101516.63;4740060;30;45437;-82
2022/02/03 02:42:59;;;;;;;;;3.00;3.00;;;;;11.08;76.73;101512.25;4754518;29;45429;-83
2022/02/03 02:45:53;;;;;;;;;9.00;6.67;;;;;11.06;76.81;101504.22;4775767;29;44715;-83
2022/02/03 02:48:24;;;;;;;;;3.67;3.67;;;;;11.04;77.04;101491.75;4788425;29;45799;-84
2022/02/03 02:51:06;;;;;;;;;4.00;3.00;;;;;11.07;76.88;101478.50;4797118;29;45407;-83
2022/02/03 02:57:18;;;;;;;;;2.00;2.00;;;;;11.04;76.95;101458.03;4833335;29;45484;-83
2022/02/03 03:35:06;;;;;;;;;2.00;2.00;;;;;10.98;76.75;101383.38;4758599;29;45729;-82
2022/02/03 03:37:43;;;;;;;;;4.00;4.00;;;;;11.04;76.50;101382.63;4743881;29;47356;-83
2022/02/03 03:40:10;;;;;;;;;2.00;2.00;;;;;10.96;76.61;101364.69;4744019;29;45882;-83
2022/02/03 03:42:39;;;;;;;;;4.00;2.00;;;;;11.07;76.57;101385.31;4758947;29;45506;-82
2022/02/03 03:45:07;;;;;;;;;3.67;3.67;;;;;11.01;76.46;101368.38;4760169;29;44907;-82
2022/02/03 03:47:36;;;;;;;;;4.00;4.00;;;;;10.99;76.36;101369.22;4757868;29;45579;-83
2022/02/03 03:50:13;;;;;;;;;5.67;5.67;;;;;10.96;76.41;101355.81;4758662;29;45855;-83
2022/02/03 03:53:06;;;;;;;;;3.00;3.00;;;;;10.93;76.37;101350.44;4760983;29;44774;-83
2022/02/03 05:02:07;;;;;;;;;5.67;4.33;;;;;10.65;77.04;101293.06;4758187;29;45398;-83
2022/02/03 05:21:02;;;;;;;;;9.33;6.33;;;;;10.59;77.38;101284.06;4670328;30;45897;-84
2022/02/03 05:55:26;;;;;;;;;6.67;6.33;;;;;10.13;77.71;101259.00;4722022;30;45546;-83
2022/02/03 06:13:42;;;;;;;;;4.67;3.67;;;;;10.08;77.42;101244.72;4838441;29;44884;-83
2022/02/03 06:16:33;;;;;;;;;8.67;8.00;;;;;10.08;77.39;101243.81;4838471;29;45288;-83
2022/02/03 06:23:57;;;;;;;;;11.33;8.67;;;;;9.97;77.61;101219.66;4837536;29;45572;-83
2022/02/03 06:29:11;;;;;;;;;7.67;7.00;;;;;10.04;77.85;101208.31;4836362;29;44809;-83
2022/02/03 06:31:39;;;;;;;;;7.67;7.00;;;;;9.95;78.14;101186.81;4820992;29;45888;-84
2022/02/03 06:34:06;;;;;;;;;10.67;9.67;;;;;9.98;77.67;101190.47;4836436;29;45518;-84
2022/02/03 06:36:33;;;;;;;;;7.00;7.00;;;;;10.05;77.80;101196.81;4836158;29;45743;-84
2022/02/03 06:38:59;;;;;;;;;9.33;9.33;;;;;10.09;77.57;101204.00;4819119;29;45473;-84
2022/02/03 06:41:24;;;;;;;;;8.67;8.67;;;;;10.05;77.59;101191.50;4819588;29;44830;-84
2022/02/03 06:49:56;;;;;;;;;10.33;9.67;;;;;9.98;77.78;101190.47;4837615;29;45320;-83
2022/02/03 06:52:41;;;;;;;;;9.00;8.67;;;;;9.96;78.07;101180.66;4820084;29;45494;-83
2022/02/03 06:57:47;;;;;;;;;13.00;12.00;;;;;10.00;78.13;101196.72;4836484;29;45576;-83
2022/02/03 07:00:57;;;;;;;;;15.33;12.67;;;;;9.98;77.96;101200.19;4834825;29;45930;-83
2022/02/03 07:03:15;;;;;;;;;8.67;8.67;;;;;9.98;78.10;101200.19;4833639;29;45478;-84
2022/02/03 07:05:40;;;;;;;;;10.67;10.33;;;;;10.03;77.67;101203.84;4821463;29;45565;-84
2022/02/03 07:08:11;;;;;;;;;15.00;12.00;;;;;9.98;77.85;101205.50;4836249;29;45509;-84
2022/02/03 07:10:36;;;;;;;;;13.33;13.33;;;;;10.02;77.60;101196.75;4838740;29;45429;-83
2022/02/03 07:13:02;;;;;;;;;14.33;10.67;;;;;10.00;77.68;101195.81;4822978;29;45730;-83
2022/02/03 07:15:27;;;;;;;;;13.00;12.67;;;;;10.06;77.42;101201.28;4838537;29;45490;-83
2022/02/03 07:17:57;;;;;;;;;10.00;9.67;;;;;10.01;77.20;101195.81;4837832;29;45949;-82
2022/02/03 07:20:26;;;;;;;;;14.67;10.33;;;;;10.00;77.66;101209.09;4835924;29;45897;-82
2022/02/03 07:23:12;;;;;;;;;13.00;13.00;;;;;9.87;77.61;101183.09;4835453;29;45762;-85
2022/02/03 07:25:46;;;;;;;;;14.00;11.00;;;;;9.84;77.46;101183.94;4843321;29;45841;-84
2022/02/03 07:28:22;;;;;;;;;14.00;11.33;;;;;9.85;77.99;101203.41;4840299;29;46333;-83
2022/02/03 07:30:51;;;;;;;;;12.00;10.00;;;;;9.90;77.43;101209.75;4838975;29;45671;-83
2022/02/03 07:33:30;;;;;;;;;15.67;14.00;;;;;9.94;77.64;101183.28;4838101;29;45551;-84
2022/02/03 07:36:09;;;;;;;;;12.67;12.67;;;;;10.14;77.63;101205.00;4853563;29;45069;-84
2022/02/03 07:39:05;;;;;;;;;17.33;17.33;;;;;10.16;77.43;101215.66;4826707;29;45315;-85
2022/02/03 07:48:23;;;;;;;;;13.33;13.33;;;;;10.14;77.49;101186.41;4836781;29;45473;-83
2022/02/03 07:50:56;;;;;;;;;14.33;14.00;;;;;10.26;77.47;101195.50;4819652;29;45402;-84
2022/02/03 07:53:27;;;;;;;;;22.33;20.33;;;;;10.26;77.49;101192.84;4822818;29;44868;-83
2022/02/03 07:55:57;;;;;;;;;15.33;14.00;;;;;10.20;77.43;101191.84;4820178;29;45845;-83
2022/02/03 07:58:24;;;;;;;;;16.67;14.33;;;;;9.98;77.26;101139.09;4839090;29;45604;-84
2022/02/03 08:01:22;;;;;;;;;17.67;15.33;;;;;10.26;77.35;101200.81;4836343;29;45542;-84
2022/02/03 08:03:55;;;;;;;;;13.67;13.00;;;;;10.11;76.84;101177.47;4784160;29;44815;-84
2022/02/03 08:06:55;;;;;;;;;13.67;13.33;;;;;10.14;76.91;101218.31;4781531;29;44936;-83
2022/02/03 08:09:59;;;;;;;;;15.33;15.33;;;;;10.07;77.32;101203.06;4784181;29;45656;-83
2022/02/03 08:12:34;;;;;;;;;13.33;10.33;;;;;9.80;77.54;101167.00;4781314;29;45589;-84
2022/02/03 08:15:09;;;;;;;;;20.33;14.67;;;;;9.88;77.34;101177.81;4782088;29;45559;-83
2022/02/03 08:21:00;;;;;;;;;12.00;12.00;;;;;9.89;77.31;101178.72;4893570;24;46948;-83
2022/02/03 08:23:56;;;;;;;;;15.67;15.67;;;;;9.89;77.66;101179.59;4848913;23;46914;-84
2022/02/03 08:32:34;;;;;;;;;13.67;13.67;;;;;10.28;76.81;101188.47;4851256;29;46477;-84
2022/02/03 08:37:45;;;;;;;;;19.00;16.00;;;;;10.39;76.52;101189.63;4857496;29;45467;-84
2022/02/03 08:40:20;;;;;;;;;17.00;14.00;;;;;10.38;76.75;101177.19;4858881;29;45441;-84
2022/02/03 08:43:19;;;;;;;;;14.33;14.33;;;;;10.39;76.35;101176.34;4871036;29;45356;-83
2022/02/03 08:46:13;;;;;;;;;15.00;15.00;;;;;10.21;76.25;101132.50;4853687;29;45434;-84
2022/02/03 08:49:48;;;;;;;;;15.00;13.67;;;;;10.17;76.37;101127.09;4843911;29;45461;-83
2022/02/03 08:53:05;;;;;;;;;14.00;14.00;;;;;10.28;76.63;101141.53;4855031;23;45683;-83
2022/02/03 09:38:49;;;;;;;;;20.00;18.33;;;;;10.41;76.71;101117.00;4798958;29;45767;-83
2022/02/03 09:58:54;;;;;;;;;23.33;19.33;;;;;10.52;76.21;101076.44;4795767;29;45064;-84
2022/02/03 10:01:40;;;;;;;;;26.67;20.00;;;;;10.77;76.00;101107.09;4802152;29;45566;-85
2022/02/03 10:04:17;;;;;;;;;19.67;18.33;;;;;10.85;76.16;101129.41;4795670;29;45844;-85
2022/02/03 10:07:04;;;;;;;;;23.00;17.67;;;;;10.77;76.22;101091.13;4780155;29;45571;-85
2022/02/03 10:09:42;;;;;;;;;21.67;20.00;;;;;11.03;75.93;101128.88;4783268;29;47062;-86
2022/02/03 10:12:50;;;;;;;;;21.00;16.67;;;;;10.99;75.74;101111.94;4783589;29;45396;-86
2022/02/03 10:15:21;;;;;;;;;18.00;16.00;;;;;10.89;75.65;101096.69;4783238;29;45431;-86
2022/02/03 10:18:27;;;;;;;;;21.00;18.00;;;;;11.16;75.88;101137.97;4799442;29;44983;-85
2022/02/03 10:21:01;;;;;;;;;19.33;17.00;;;;;11.15;75.90;101144.13;4798413;29;45510;-86
2022/02/03 10:23:32;;;;;;;;;21.67;21.00;;;;;11.16;75.89;101136.19;4771300;29;45378;-85
2022/02/03 10:26:40;;;;;;;;;;;;;;;;;;;;;
2022/02/03 10:29:36;;;;;;;;;23.00;20.67;;;;;11.16;75.28;101103.34;4940604;24;65835;-85
2022/02/03 10:33:09;;;;;;;;;24.00;21.33;;;;;11.15;75.13;101106.88;4850121;29;45338;-87
2022/02/03 10:35:55;;;;;;;;;24.67;21.33;;;;;11.22;75.22;101135.41;4823362;29;44836;-85
2022/02/03 10:39:08;;;;;;;;;26.00;22.67;;;;;11.08;75.01;101123.63;4820536;29;44853;-85
2022/02/03 10:42:21;;;;;;;;;23.67;21.33;;;;;11.22;74.86;101135.41;4803309;29;45415;-85
2022/02/03 10:54:04;;;;;;;;;25.33;21.00;;;;;11.30;74.84;101128.44;4820096;29;44979;-86
2022/02/03 11:02:45;;;;;;;;;21.00;17.33;;;;;11.23;75.08;101112.34;4786448;29;45407;-85
2022/02/03 11:08:16;;;;;;;;;19.33;17.67;;;;;11.35;74.16;101100.16;4802438;29;45432;-85
2022/02/03 11:11:01;;;;;;;;;15.00;15.00;;;;;11.19;74.45;101066.16;4806965;29;45615;-85
2022/02/03 11:13:35;;;;;;;;;22.00;18.33;;;;;11.43;74.46;101096.69;4787957;29;45555;-84
2022/02/03 11:16:09;;;;;;;;;21.33;20.67;;;;;11.47;74.40;101096.75;4805694;29;45419;-84
2022/02/03 11:18:46;;;;;;;;;23.67;19.67;;;;;11.50;74.48;101087.94;4788740;29;46449;-85
2022/02/03 11:22:07;;;;;;;;;22.00;20.00;;;;;11.38;74.18;101052.25;4802025;29;45393;-86
2022/02/03 11:31:56;;;;;;;;;24.33;16.00;;;;;11.43;74.04;101038.09;4805264;29;45406;-85
2022/02/03 12:01:42;;;;;;;;;24.33;21.33;;;;;11.55;74.54;101051.59;4753370;29;45533;-86
2022/02/03 12:12:20;;;;;;;;;25.33;22.33;;;;;11.33;74.62;101029.06;4758238;29;45489;-87
2022/02/03 12:14:49;;;;;;;;;27.00;20.67;;;;;11.13;74.82;101028.75;4764354;29;45508;-87
2022/02/03 12:17:31;;;;;;;;;24.67;20.00;;;;;10.96;75.40;101020.50;4764690;29;44879;-85
2022/02/03 12:20:11;;;;;;;;;17.33;17.00;;;;;10.86;75.75;101011.47;4763110;29;47181;-85
2022/02/03 12:25:23;;;;;;;;;25.00;22.33;;;;;10.80;75.65;100976.78;4764009;29;44900;-86
2022/02/03 12:28:07;;;;;;;;;16.33;16.00;;;;;10.88;75.86;100985.78;4764399;29;45538;-87
2022/02/03 12:37:54;;;;;;;;;19.33;17.00;;;;;11.09;75.67;100979.00;4783254;29;45388;-86
2022/02/03 12:49:30;;;;;;;;;22.00;21.00;;;;;10.88;75.89;100964.47;4859237;29;45295;-85
2022/02/03 12:52:53;;;;;;;;;22.00;21.00;;;;;10.87;76.14;100976.00;4831929;29;45033;-84
2022/02/03 12:56:15;;;;;;;;;26.00;19.33;;;;;11.02;76.36;100992.22;4859165;29;45133;-84
2022/02/03 12:59:18;;;;;;;;;24.33;21.00;;;;;10.79;76.60;100948.38;4860018;29;45389;-85
2022/02/03 13:02:10;;;;;;;;;26.00;23.33;;;;;11.14;76.47;100995.94;4859212;29;45429;-83
2022/02/03 13:05:07;;;;;;;;;26.33;22.00;;;;;11.02;76.41;100978.03;4857241;29;44901;-85
2022/02/03 13:07:57;;;;;;;;;22.00;18.33;;;;;11.10;76.55;100995.00;4835109;29;45335;-85
2022/02/03 13:10:40;;;;;;;;;24.67;22.67;;;;;10.77;76.53;100945.69;4841653;29;44740;-85
2022/02/03 13:13:52;;;;;;;;;;;;;;;;;;;;;
2022/02/03 13:16:55;;;;;;;;;24.67;23.00;;;;;11.04;76.97;100999.34;4762326;29;65800;-84
2022/02/03 13:22:52;;;;;;;;;27.00;25.33;;;;;11.01;77.14;100993.09;4767973;29;45529;-84
2022/02/03 13:31:41;;;;;;;;;20.33;20.00;;;;;10.63;78.00;100978.25;4765123;29;45064;-84
2022/02/03 13:34:32;;;;;;;;;26.33;21.33;;;;;10.41;78.06;100927.34;4762157;29;44959;-85
2022/02/03 13:37:26;;;;;;;;;21.00;18.00;;;;;10.74;78.31;100960.69;4754955;29;45730;-84
2022/02/03 13:40:25;;;;;;;;;24.67;19.33;;;;;10.95;77.96;100982.34;4764164;29;44940;-83
2022/02/03 13:43:15;;;;;;;;;29.67;28.33;;;;;10.77;77.92;100947.47;4762854;29;46298;-84
2022/02/03 13:45:49;;;;;;;;;25.33;20.33;;;;;10.90;77.84;100973.38;4761231;29;45291;-86
2022/02/03 13:48:31;;;;;;;;;26.33;22.00;;;;;10.69;77.84;100925.16;4764303;29;45458;-83
2022/02/03 14:10:24;;;;;;;;;25.67;23.00;;;;;11.03;77.99;100974.50;5027528;24;45605;-84
2022/02/03 14:15:02;;;;;;;;;28.33;23.67;;;;;11.09;77.62;100909.78;4795900;29;44808;-83
2022/02/03 14:18:04;;;;;;;;;26.00;23.67;;;;;11.23;77.80;100926.91;4765393;29;45328;-85
2022/02/03 14:20:47;;;;;;;;;26.33;22.00;;;;;11.43;77.40;100935.13;4771419;29;45021;-85
2022/02/03 14:29:07;;;;;;;;;22.33;21.67;;;;;11.97;76.73;100923.41;4798558;29;45461;-84
2022/02/03 14:31:57;;;;;;;;;;;;;;;;;;;;;
2022/02/03 14:34:49;;;;;;;;;23.67;19.67;;;;;12.14;76.20;100888.94;4813379;29;45665;-85
2022/02/03 14:38:15;;;;;;;;;25.67;25.00;;;;;12.52;75.64;100915.09;4841906;29;45420;-84
2022/02/03 14:41:08;;;;;;;;;16.33;14.67;;;;;12.39;75.18;100902.50;4846098;29;46420;-84
2022/02/03 14:43:59;;;;;;;;;22.00;21.33;;;;;12.50;75.29;100913.28;4835126;29;45567;-84
2022/02/03 14:47:31;;;;;;;;;26.00;22.33;;;;;12.57;74.81;100913.34;4839541;29;44950;-83
2022/02/03 14:50:55;;;;;;;;;26.67;25.33;;;;;12.53;74.81;100902.63;4852213;29;45513;-84
2022/02/03 14:54:18;;;;;;;;;20.00;17.33;;;;;12.40;74.86;100899.88;4853909;29;45725;-84
2022/02/03 14:59:32;;;;;;;;;24.33;20.33;;;;;12.24;75.08;100863.28;4836151;29;45556;-84
2022/02/03 15:01:59;;;;;;;;;25.67;23.33;;;;;12.37;74.99;100875.81;4822898;29;45332;-85
2022/02/03 15:04:29;;;;;;;;;22.67;22.00;;;;;12.49;74.79;100892.81;4823981;29;47180;-85
2022/02/03 15:07:38;;;;;;;;;;;;;;;;;;;;;
2022/02/03 15:17:20;;;;;;;;;;;;;;;;;;;;;
2022/02/03 15:19:52;;;;;;;;;22.67;19.33;;;;;12.39;74.99;100903.41;4840817;29;71210;-85
2022/02/03 15:23:37;;;;;;;;;;;;;;;;;;;;;
2022/02/03 15:32:51;;;;;;;;;21.00;18.67;;;;;12.38;74.95;100901.63;4873151;23;45527;-84
2022/02/03 15:35:50;;;;;;;;;16.33;14.67;;;;;12.20;74.98;100880.13;4861540;29;45451;-85
2022/02/03 15:38:54;;;;;;;;;15.00;13.00;;;;;12.24;75.13;100908.59;4848766;29;44890;-84
2022/02/03 16:17:16;;;;;;;;;17.67;15.00;;;;;11.63;76.95;100892.78;4856627;29;45339;-84
2022/02/03 16:19:57;;;;;;;;;21.67;19.33;;;;;11.41;77.27;100878.28;4854729;29;45527;-84
2022/02/03 16:26:41;;;;;;;;;29.00;19.33;;;;;11.23;77.39;100855.00;4836827;29;44796;-85
2022/02/03 16:43:04;;;;;;;;;21.33;16.33;;;;;11.47;77.53;100885.47;974433;27;45958;-84
2022/02/03 17:00:28;;;;;;;;;23.00;18.67;;;;;11.47;77.96;100897.00;4847552;23;45408;-84
2022/02/03 17:03:11;;;;;;;;;21.33;19.33;;;;;11.53;77.97;100912.19;4839357;29;45380;-85
2022/02/03 17:05:46;;;;;;;;;14.67;14.33;;;;;11.38;78.04;100895.13;4815018;29;47073;-86
2022/02/03 17:11:21;;;;;;;;;19.67;18.00;;;;;11.47;78.46;100906.78;4762723;29;45370;-84
2022/02/03 17:14:01;;;;;;;;;23.33;18.00;;;;;11.46;78.30;100910.34;4740708;29;45399;-83
2022/02/03 17:16:39;;;;;;;;;16.67;16.67;;;;;11.53;78.30;100922.84;4755776;29;46460;-84
2022/02/03 17:19:08;;;;;;;;;13.00;12.67;;;;;11.54;78.44;100924.63;4755233;29;45675;-84
2022/02/03 17:21:39;;;;;;;;;20.00;20.00;;;;;11.36;78.45;100896.88;4760950;29;45493;-84
2022/02/03 17:24:11;;;;;;;;;22.00;22.00;;;;;11.57;78.49;100930.00;4760057;29;45329;-84
2022/02/03 18:10:50;;;;;;;;;21.33;21.33;;;;;11.53;79.34;100923.75;4855080;29;44910;-85
2022/02/03 18:35:23;;;;;;;;;26.33;26.00;;;;;11.26;80.23;100929.59;4851848;29;45416;-84
2022/02/03 18:45:52;;;;;;;;;34.33;30.33;;;;;11.33;80.45;100946.53;4852218;29;45675;-85
2022/02/03 18:54:16;;;;;;;;;26.67;24.00;;;;;11.08;81.41;100946.16;4853721;29;45771;-84
2022/02/03 18:56:55;;;;;;;;;29.67;22.33;;;;;10.91;81.38;100927.28;4836676;29;45792;-83
2022/02/03 19:10:49;;;;;;;;;19.33;19.33;;;;;11.15;81.83;100947.16;4853962;29;45923;-83
2022/02/03 19:25:07;;;;;;;;;22.33;16.00;;;;;11.00;82.03;100935.41;4761090;29;45749;-84
2022/02/03 20:08:53;;;;;;;;;17.67;16.00;;;;;10.99;82.86;100948.72;4814763;29;45555;-84
2022/02/03 20:11:19;;;;;;;;;19.33;19.00;;;;;11.07;83.03;100960.38;4786206;29;45576;-84
2022/02/03 20:13:55;;;;;;;;;19.67;17.33;;;;;11.05;82.90;100956.78;4799912;29;45550;-83
2022/02/03 20:16:22;;;;;;;;;21.33;17.67;;;;;11.06;82.96;100961.22;4799694;29;46848;-84
2022/02/03 20:18:49;;;;;;;;;22.00;19.67;;;;;10.95;83.13;100946.88;4814356;29;45623;-83
2022/02/03 20:21:17;;;;;;;;;22.67;19.67;;;;;11.01;83.08;100947.84;4799955;29;44864;-83
2022/02/03 20:23:45;;;;;;;;;25.33;17.67;;;;;11.07;83.27;100967.44;4814776;29;45720;-84
2022/02/03 20:26:13;;;;;;;;;23.67;18.67;;;;;10.99;83.15;100960.25;4814288;29;47116;-85
2022/02/03 20:28:38;;;;;;;;;20.33;18.00;;;;;10.98;83.13;100946.91;4814289;29;45715;-83
2022/02/03 20:31:04;;;;;;;;;29.67;25.00;;;;;10.90;83.61;100940.56;4814734;29;45476;-84
2022/02/03 20:33:37;;;;;;;;;27.00;21.00;;;;;11.08;83.41;100974.56;4814972;29;45369;-82
2022/02/03 20:36:21;;;;;;;;;22.00;20.67;;;;;11.04;83.42;100965.63;4812575;29;45552;-84
2022/02/03 20:38:48;;;;;;;;;26.67;19.67;;;;;11.01;83.69;100968.25;4814593;29;45408;-84
2022/02/03 20:41:15;;;;;;;;;18.33;18.33;;;;;10.99;83.68;100957.59;4799327;29;45839;-83
2022/02/03 20:43:40;;;;;;;;;23.67;22.00;;;;;10.99;83.59;100960.25;4813935;29;44962;-84
2022/02/03 20:46:06;;;;;;;;;20.00;19.33;;;;;10.92;83.74;100953.03;4851266;29;46399;-83
2022/02/03 20:48:32;;;;;;;;;18.67;15.33;;;;;10.96;83.76;100961.94;4852573;29;44823;-83
2022/02/03 20:50:58;;;;;;;;;24.00;21.33;;;;;10.88;83.94;100951.19;4836545;29;45355;-84
2022/02/03 20:53:36;;;;;;;;;18.33;18.00;;;;;10.86;83.88;100952.91;4853904;29;45430;-84
2022/02/03 20:56:05;;;;;;;;;21.00;16.67;;;;;10.92;83.98;100963.66;4851667;29;45524;-84
2022/02/03 20:58:30;;;;;;;;;24.00;17.33;;;;;10.72;84.14;100930.53;4852138;29;45384;-84
2022/02/03 21:00:59;;;;;;;;;21.67;20.67;;;;;10.85;84.08;100964.44;4837444;29;45521;-84
2022/02/03 21:03:39;;;;;;;;;20.33;18.00;;;;;10.61;84.14;100927.69;4837616;29;45724;-83
2022/02/03 21:06:05;;;;;;;;;22.33;18.33;;;;;10.88;83.87;100967.16;4836421;29;45345;-83
2022/02/03 21:09:21;;;;;;;;;18.00;15.33;;;;;10.94;83.96;100958.38;4822201;29;45450;-84
2022/02/03 21:11:46;;;;;;;;;15.67;15.00;;;;;10.87;83.95;100954.72;4837789;29;45373;-84
2022/02/03 21:14:15;;;;;;;;;22.00;18.33;;;;;10.90;84.04;100957.41;4853226;29;45390;-82
2022/02/03 21:16:50;;;;;;;;;17.67;15.33;;;;;10.91;83.63;100963.66;4836899;29;47052;-83
2022/02/03 21:19:16;;;;;;;;;17.33;16.00;;;;;10.91;83.80;100950.34;4853103;29;45473;-83
2022/02/03 21:21:41;;;;;;;;;15.33;15.00;;;;;10.90;83.93;100957.41;4836890;29;45506;-84
2022/02/03 21:24:07;;;;;;;;;14.67;13.00;;;;;10.88;83.76;100953.84;4856024;29;45495;-84
2022/02/03 21:26:37;;;;;;;;;17.00;16.00;;;;;10.92;83.80;100961.00;4854418;29;46235;-84
2022/02/03 21:29:05;;;;;;;;;21.33;16.00;;;;;10.96;83.89;100965.50;4837267;29;45710;-83
2022/02/03 21:31:33;;;;;;;;;15.33;12.33;;;;;10.91;83.67;100967.22;4854671;29;45420;-84
2022/02/03 21:33:58;;;;;;;;;14.67;13.67;;;;;10.90;83.91;100967.19;4823539;29;45523;-83
2022/02/03 21:36:36;;;;;;;;;10.67;10.67;;;;;10.88;83.75;100953.84;4837568;29;47146;-84
2022/02/03 21:39:02;;;;;;;;;10.67;9.67;;;;;10.86;83.86;100963.56;4852268;29;45824;-83
2022/02/03 21:41:27;;;;;;;;;21.67;15.33;;;;;10.87;84.13;100972.47;4852597;29;46016;-83
2022/02/03 21:43:53;;;;;;;;;18.00;16.67;;;;;10.88;83.93;100975.13;4853080;29;45422;-83
2022/02/03 21:46:18;;;;;;;;;12.50;12.50;;;;;10.84;84.20;100975.94;4836631;29;48384;-83
2022/02/03 21:48:48;;;;;;;;;18.00;14.67;;;;;10.70;84.24;100961.53;4834938;29;45950;-83
2022/02/03 21:51:22;;;;;;;;;15.33;15.33;;;;;10.84;84.22;100967.97;4836236;29;45512;-83
2022/02/03 21:53:48;;;;;;;;;12.00;12.00;;;;;10.90;83.97;100981.38;4854645;29;45546;-84
2022/02/03 21:56:15;;;;;;;;;10.67;10.67;;;;;10.90;83.81;100978.72;4836128;29;46733;-84
2022/02/03 21:58:40;;;;;;;;;15.33;13.67;;;;;10.66;84.09;100941.06;4853233;29;45307;-83
2022/02/03 22:01:06;;;;;;;;;15.67;15.33;;;;;10.82;83.79;100969.72;4837759;29;45411;-83
2022/02/03 22:03:31;;;;;;;;;12.33;12.33;;;;;10.84;83.99;100967.97;4854972;29;45420;-83
2022/02/03 22:05:59;;;;;;;;;18.00;16.00;;;;;10.94;83.93;100985.88;4836834;29;47456;-83
2022/02/03 22:08:25;;;;;;;;;13.00;13.00;;;;;10.93;84.03;100983.22;4835175;29;45541;-83
2022/02/03 22:10:51;;;;;;;;;15.00;13.33;;;;;10.90;83.97;100981.38;4835902;29;45513;-83
2022/02/03 22:16:40;;;;;;;;;16.00;14.67;;;;;10.76;84.42;100981.13;4851770;29;45638;-83
2022/02/03 22:19:05;;;;;;;;;11.67;10.33;;;;;10.78;83.99;100983.81;4835543;29;45359;-83
2022/02/03 22:21:42;;;;;;;;;14.67;12.33;;;;;10.82;84.06;100988.34;4852510;29;45530;-83
2022/02/03 22:24:25;;;;;;;;;14.33;13.33;;;;;10.82;84.21;100991.00;4853745;29;45370;-83
2022/02/03 22:27:10;;;;;;;;;15.00;15.00;;;;;10.74;84.26;100979.31;4835531;29;47022;-83
2022/02/03 22:46:06;;;;;;;;;10.67;10.00;;;;;10.87;84.09;100999.97;4816702;29;45448;-83
2022/02/03 22:48:26;;;;;;;;;13.67;13.00;;;;;10.79;83.89;100986.53;4814117;29;46050;-84
2022/02/03 22:50:56;;;;;;;;;14.67;13.33;;;;;10.89;83.90;100997.34;4801333;29;45453;-83
2022/02/03 22:53:22;;;;;;;;;18.67;16.00;;;;;10.78;84.00;100994.47;4802062;29;45476;-84
2022/02/03 22:55:48;;;;;;;;;11.67;11.67;;;;;10.80;84.13;101000.72;4801877;29;45548;-83
2022/02/03 23:01:03;;;;;;;;;14.33;14.33;;;;;10.80;83.82;100992.72;4815626;29;45630;-83
2022/02/03 23:03:31;;;;;;;;;14.00;11.67;;;;;10.80;84.46;100995.38;4799813;29;44893;-83
2022/02/03 23:05:58;;;;;;;;;13.67;12.67;;;;;10.78;84.16;100997.13;4815212;29;45533;-84
2022/02/03 23:08:53;;;;;;;;;12.33;12.33;;;;;10.70;84.18;100985.47;4802639;29;47568;-84
2022/02/03 23:11:32;;;;;;;;;16.00;15.00;;;;;10.72;84.40;100986.38;4851632;29;45727;-83
2022/02/03 23:14:14;;;;;;;;;15.33;14.00;;;;;10.74;84.18;100995.28;4835947;29;45823;-84
2022/02/03 23:19:44;;;;;;;;;19.67;16.33;;;;;10.68;84.32;100981.88;4852116;29;46051;-83
2022/02/03 23:22:14;;;;;;;;;13.33;13.00;;;;;10.70;84.24;100994.31;4835245;29;45493;-83
2022/02/03 23:24:45;;;;;;;;;16.67;15.67;;;;;10.74;84.09;101004.16;4835297;29;45956;-83
2022/02/03 23:29:52;;;;;;;;;14.67;13.67;;;;;10.66;84.43;100999.56;4852438;29;45514;-83
2022/02/03 23:32:18;;;;;;;;;15.67;15.67;;;;;10.67;84.64;101007.59;4852589;29;45473;-83
2022/02/03 23:34:49;;;;;;;;;15.00;14.00;;;;;10.63;84.70;101000.44;4852674;29;45265;-84
2022/02/03 23:37:15;;;;;;;;;17.00;17.00;;;;;10.59;84.57;100996.81;4835552;29;45516;-83
